Time;durP1;ratioP1;P1;durP2;ratioP2;P2;SDS_P1;SDS_P2;PMS_P1;PMS_P2;Temp;Humidity;BMP_temperature;BMP_pressure;BME280_temperature;BME280_humidity;BME280_pressure;Samples;Min_cycle;Max_cycle;Signal;HPM_P1;HPM_P2
2023/12/15 00:00:33;;;;;;;53.43;21.03;;;2.90;99.90;;;;;;5094633;28;20185;-52
2023/12/15 00:02:59;;;;;;;43.37;20.07;;;2.90;99.90;;;;;;5094982;28;20185;-52
2023/12/15 00:05:25;;;;;;;46.50;21.40;;;2.90;99.90;;;;;;5095121;28;20859;-52
2023/12/15 00:07:51;;;;;;;50.20;20.67;;;2.90;99.90;;;;;;5095037;28;20180;-52
2023/12/15 00:10:17;;;;;;;48.40;21.47;;;2.90;99.90;;;;;;5094494;28;20548;-52
2023/12/15 00:12:43;;;;;;;42.00;20.43;;;2.90;99.90;;;;;;5094635;28;20292;-52
2023/12/15 00:15:09;;;;;;;38.93;18.60;;;3.00;99.90;;;;;;5094411;28;21012;-52
2023/12/15 00:17:35;;;;;;;42.20;18.90;;;3.00;99.90;;;;;;5094803;28;20175;-52
2023/12/15 00:20:00;;;;;;;46.77;22.13;;;2.90;99.90;;;;;;5095114;28;20413;-52
2023/12/15 00:22:26;;;;;;;42.63;19.90;;;2.90;99.90;;;;;;5093756;28;20631;-52
2023/12/15 00:24:51;;;;;;;42.23;20.27;;;3.00;99.90;;;;;;5094641;28;20666;-52
2023/12/15 00:27:17;;;;;;;50.80;20.77;;;3.00;99.90;;;;;;5094658;28;20186;-52
2023/12/15 00:29:43;;;;;;;45.30;20.70;;;3.00;99.90;;;;;;5094496;28;20179;-52
2023/12/15 00:32:08;;;;;;;46.00;20.33;;;3.00;99.90;;;;;;5094125;28;20216;-52
2023/12/15 00:34:34;;;;;;;43.77;20.00;;;3.00;99.90;;;;;;5093939;28;20188;-52
2023/12/15 00:36:59;;;;;;;45.03;20.67;;;3.10;99.90;;;;;;5094262;28;20207;-52
2023/12/15 00:39:25;;;;;;;46.70;20.67;;;3.10;99.90;;;;;;5093435;28;20594;-52
2023/12/15 00:41:50;;;;;;;46.83;20.77;;;3.20;99.90;;;;;;5094399;28;20223;-52
2023/12/15 00:44:16;;;;;;;44.13;19.20;;;3.10;97.40;;;;;;5094296;28;20208;-52
2023/12/15 00:46:41;;;;;;;44.70;19.90;;;3.20;97.70;;;;;;5094243;28;20175;-52
2023/12/15 00:49:07;;;;;;;45.30;18.77;;;3.10;96.00;;;;;;5093539;28;20182;-52
2023/12/15 00:51:32;;;;;;;42.93;20.17;;;3.10;91.10;;;;;;5093699;28;20291;-52
2023/12/15 00:53:58;;;;;;;46.00;20.93;;;3.10;93.60;;;;;;5094203;28;20209;-52
2023/12/15 00:56:23;;;;;;;50.77;21.03;;;3.10;93.10;;;;;;5093852;28;20184;-52
2023/12/15 00:58:49;;;;;;;40.97;18.97;;;3.10;98.60;;;;;;5093725;28;20760;-52
2023/12/15 01:01:15;;;;;;;45.27;21.07;;;3.20;95.10;;;;;;5093485;28;20191;-51
2023/12/15 01:03:40;;;;;;;47.40;20.93;;;3.10;87.90;;;;;;5093858;28;20260;-52
2023/12/15 01:06:07;;;;;;;42.43;19.37;;;3.10;95.10;;;;;;5093238;28;20288;-51
2023/12/15 01:08:32;;;;;;;47.40;19.67;;;3.20;93.80;;;;;;5093001;28;20205;-52
2023/12/15 01:10:58;;;;;;;50.30;21.03;;;3.20;95.50;;;;;;5092319;28;20466;-52
2023/12/15 01:13:23;;;;;;;44.53;21.40;;;3.20;94.90;;;;;;5093937;28;20199;-52
2023/12/15 01:15:49;;;;;;;51.03;20.83;;;3.30;94.40;;;;;;5093662;28;20212;-53
2023/12/15 01:18:15;;;;;;;47.50;20.43;;;3.30;83.30;;;;;;5093290;28;20264;-53
2023/12/15 01:20:40;;;;;;;55.70;24.03;;;3.30;88.40;;;;;;5093236;28;20235;-53
2023/12/15 01:23:06;;;;;;;53.67;22.80;;;3.30;74.20;;;;;;5074298;28;20181;-52
2023/12/15 01:25:31;;;;;;;48.17;21.30;;;3.40;58.60;;;;;;5093048;28;20175;-52
2023/12/15 01:27:57;;;;;;;40.90;19.60;;;3.40;52.10;;;;;;5093817;28;20176;-52
2023/12/15 01:30:23;;;;;;;38.40;20.07;;;3.40;46.60;;;;;;5093045;28;20643;-52
2023/12/15 01:32:48;;;;;;;46.13;20.60;;;3.50;47.30;;;;;;5092751;28;20189;-52
2023/12/15 01:35:14;;;;;;;48.27;20.47;;;3.50;20.30;;;;;;5092608;28;20199;-52
2023/12/15 01:37:39;;;;;;;46.33;21.47;;;3.50;9.50;;;;;;5093192;28;20185;-51
2023/12/15 01:40:06;;;;;;;40.50;19.10;;;3.50;1.00;;;;;;5092828;28;20902;-52
2023/12/15 01:42:32;;;;;;;43.50;20.10;;;3.60;2.80;;;;;;5092421;28;20278;-52
2023/12/15 01:44:57;;;;;;;45.83;21.30;;;3.60;1.00;;;;;;5092113;28;20510;-52
2023/12/15 01:47:24;;;;;;;52.20;21.43;;;3.60;1.00;;;;;;5092770;28;20184;-52
2023/12/15 01:49:51;;;;;;;46.97;20.27;;;3.50;1.00;;;;;;5092218;28;20177;-52
2023/12/15 01:52:17;;;;;;;43.37;19.67;;;3.60;1.00;;;;;;5092864;28;20463;-52
2023/12/15 01:54:42;;;;;;;40.87;19.10;;;3.60;1.00;;;;;;5092572;28;20427;-51
2023/12/15 01:57:08;;;;;;;44.07;21.30;;;3.60;1.00;;;;;;5091588;28;20183;-51
2023/12/15 01:59:44;;;;;;;54.47;22.17;;;3.60;1.00;;;;;;5093192;28;20200;-52
2023/12/15 02:02:10;;;;;;;39.90;19.30;;;3.60;1.00;;;;;;5092675;28;20189;-51
2023/12/15 02:04:37;;;;;;;48.13;22.33;;;3.60;1.00;;;;;;5092255;28;20419;-52
2023/12/15 02:07:03;;;;;;;52.60;23.00;;;3.60;1.00;;;;;;5091772;28;20238;-52
2023/12/15 02:09:28;;;;;;;49.87;22.57;;;3.60;1.00;;;;;;5091711;28;20931;-52
2023/12/15 02:11:54;;;;;;;42.33;20.37;;;3.60;1.00;;;;;;5092433;28;20542;-52
2023/12/15 02:14:20;;;;;;;43.47;20.30;;;3.70;1.00;;;;;;5092382;28;20179;-52
2023/12/15 02:16:45;;;;;;;39.00;19.43;;;3.70;1.00;;;;;;5092560;28;20545;-52
2023/12/15 02:19:11;;;;;;;45.03;20.50;;;3.70;1.00;;;;;;5091387;28;20539;-52
2023/12/15 02:21:36;;;;;;;40.43;18.77;;;3.70;1.00;;;;;;5092133;28;20195;-51
2023/12/15 02:24:02;;;;;;;39.13;19.40;;;3.60;1.00;;;;;;5092247;28;20184;-51
2023/12/15 02:26:27;;;;;;;40.93;19.80;;;3.60;1.00;;;;;;5092107;28;20177;-52
2023/12/15 02:28:53;;;;;;;48.87;19.63;;;3.70;1.00;;;;;;5091713;28;20630;-52
2023/12/15 02:31:21;;;;;;;39.80;19.17;;;3.70;1.00;;;;;;5091990;28;20216;-51
2023/12/15 02:33:47;;;;;;;39.37;18.80;;;3.60;1.00;;;;;;5092465;28;20180;-52
2023/12/15 02:36:23;;;;;;;42.00;18.30;;;3.70;1.00;;;;;;5091906;28;20450;-52
2023/12/15 02:38:49;;;;;;;39.53;19.03;;;3.70;1.00;;;;;;5092061;28;20408;-52
2023/12/15 02:41:14;;;;;;;44.87;18.80;;;3.80;1.00;;;;;;5091772;28;20465;-51
2023/12/15 02:43:40;;;;;;;40.07;19.83;;;3.70;1.00;;;;;;5091453;28;20410;-52
2023/12/15 02:46:06;;;;;;;37.60;17.77;;;3.80;1.00;;;;;;5091909;28;20989;-52
2023/12/15 02:48:32;;;;;;;39.60;18.23;;;3.80;1.00;;;;;;5091714;28;20182;-51
2023/12/15 02:50:58;;;;;;;42.87;19.60;;;3.80;1.00;;;;;;5091752;28;20470;-52
2023/12/15 02:53:24;;;;;;;39.13;18.93;;;3.80;1.00;;;;;;5091132;28;20549;-52
2023/12/15 02:55:49;;;;;;;41.30;19.73;;;3.80;1.00;;;;;;5092246;28;20179;-52
2023/12/15 02:58:18;;;;;;;42.00;18.50;;;3.80;1.00;;;;;;5091747;28;20267;-52
2023/12/15 03:00:43;;;;;;;41.17;19.17;;;3.80;1.00;;;;;;5091441;28;20177;-52
2023/12/15 03:03:09;;;;;;;37.20;18.07;;;3.80;1.00;;;;;;5091857;28;20855;-52
2023/12/15 03:05:35;;;;;;;35.33;18.30;;;3.90;1.00;;;;;;5091637;28;20241;-52
2023/12/15 03:08:01;;;;;;;39.77;18.90;;;3.90;1.00;;;;;;5090718;28;20555;-52
2023/12/15 03:10:27;;;;;;;44.03;18.03;;;3.90;1.00;;;;;;5091696;28;20462;-52
2023/12/15 03:12:52;;;;;;;38.33;18.40;;;3.90;1.00;;;;;;5092175;28;20422;-52
2023/12/15 03:15:18;;;;;;;43.70;20.17;;;3.90;1.00;;;;;;5091464;28;20203;-52
2023/12/15 03:17:43;;;;;;;38.53;18.03;;;3.90;1.00;;;;;;5091049;28;20203;-52
2023/12/15 03:20:09;;;;;;;39.43;19.40;;;3.80;1.00;;;;;;5091246;28;20269;-52
2023/12/15 03:22:36;;;;;;;36.73;18.90;;;3.80;1.00;;;;;;5091094;28;20225;-52
2023/12/15 03:25:01;;;;;;;46.23;19.17;;;3.80;1.00;;;;;;5091910;28;20204;-52
2023/12/15 03:27:27;;;;;;;45.70;19.00;;;3.80;1.00;;;;;;5090626;28;20930;-53
2023/12/15 03:29:52;;;;;;;44.40;21.00;;;3.80;1.00;;;;;;5091973;28;20281;-52
2023/12/15 03:32:18;;;;;;;46.27;20.23;;;3.80;1.00;;;;;;5091082;28;20207;-52
2023/12/15 03:34:43;;;;;;;41.63;19.03;;;3.90;1.00;;;;;;5091681;28;20181;-52
2023/12/15 03:37:09;;;;;;;42.83;20.70;;;3.80;1.00;;;;;;5090089;28;20184;-52
2023/12/15 03:39:35;;;;;;;45.37;19.47;;;3.90;1.00;;;;;;5091788;28;20678;-52
2023/12/15 03:42:06;;;;;;;49.23;20.17;;;3.90;1.00;;;;;;5091799;28;20186;-52
2023/12/15 03:44:33;;;;;;;41.00;19.80;;;3.90;1.00;;;;;;5090178;28;20417;-52
2023/12/15 03:46:59;;;;;;;46.27;21.27;;;4.00;1.00;;;;;;5091645;28;20798;-52
2023/12/15 03:49:24;;;;;;;42.53;21.20;;;4.00;1.00;;;;;;5091475;28;20417;-52
2023/12/15 03:51:50;;;;;;;45.10;20.07;;;4.00;1.00;;;;;;5091074;28;20964;-52
2023/12/15 03:54:15;;;;;;;42.40;19.03;;;4.00;1.00;;;;;;5091634;28;20643;-52
2023/12/15 03:56:41;;;;;;;47.83;20.70;;;4.00;1.00;;;;;;5090464;28;20188;-52
2023/12/15 03:59:06;;;;;;;40.97;20.30;;;3.90;1.00;;;;;;5091106;28;20655;-52
2023/12/15 04:01:32;;;;;;;42.77;19.60;;;4.00;1.00;;;;;;5091437;28;20685;-52
2023/12/15 04:03:58;;;;;;;40.17;19.53;;;4.00;1.00;;;;;;5090764;28;20177;-52
2023/12/15 04:06:24;;;;;;;43.37;20.17;;;4.00;1.00;;;;;;5090922;28;20260;-52
2023/12/15 04:08:50;;;;;;;42.47;19.40;;;4.00;1.00;;;;;;5090684;28;20186;-52
2023/12/15 04:11:16;;;;;;;45.07;19.67;;;4.00;1.00;;;;;;5091091;28;20491;-52
2023/12/15 04:13:42;;;;;;;52.97;21.80;;;4.10;1.00;;;;;;5093592;28;20598;-52
2023/12/15 04:16:08;;;;;;;46.27;20.90;;;4.10;1.00;;;;;;5094703;28;20421;-52
2023/12/15 04:18:34;;;;;;;46.87;21.10;;;4.00;1.00;;;;;;5094601;28;20662;-52
2023/12/15 04:21:00;;;;;;;44.07;20.90;;;4.10;1.00;;;;;;5094198;28;20427;-52
2023/12/15 04:23:26;;;;;;;47.67;21.13;;;4.10;1.00;;;;;;5094982;28;20240;-52
2023/12/15 04:25:51;;;;;;;49.47;21.30;;;4.10;1.00;;;;;;5093914;28;20419;-52
2023/12/15 04:28:17;;;;;;;51.77;21.33;;;4.10;1.00;;;;;;5094677;28;20176;-52
2023/12/15 04:30:43;;;;;;;44.63;21.40;;;4.00;1.00;;;;;;5093514;28;20209;-52
2023/12/15 04:33:08;;;;;;;49.70;22.10;;;4.10;1.00;;;;;;5094451;28;20185;-54
2023/12/15 04:35:34;;;;;;;53.70;21.67;;;4.00;1.00;;;;;;5093642;28;20188;-52
2023/12/15 04:37:59;;;;;;;51.30;22.60;;;4.10;3.00;;;;;;5094096;28;20192;-52
2023/12/15 04:40:25;;;;;;;50.60;23.40;;;4.10;14.80;;;;;;5093742;28;20185;-52
2023/12/15 04:42:50;;;;;;;49.00;21.83;;;4.10;10.60;;;;;;5094099;28;20187;-53
2023/12/15 04:45:16;;;;;;;53.80;22.03;;;4.10;28.40;;;;;;5094614;28;20184;-53
2023/12/15 04:47:42;;;;;;;53.27;23.27;;;4.10;31.70;;;;;;5093752;28;20257;-53
2023/12/15 04:50:08;;;;;;;52.30;22.73;;;4.10;49.40;;;;;;5093203;28;20869;-53
2023/12/15 04:52:34;;;;;;;54.83;22.60;;;4.10;70.80;;;;;;5094005;28;20210;-53
2023/12/15 04:54:59;;;;;;;52.53;22.63;;;4.10;89.10;;;;;;5093913;28;20284;-53
2023/12/15 04:57:25;;;;;;;56.03;23.80;;;4.10;98.30;;;;;;5093765;28;20212;-52
2023/12/15 04:59:51;;;;;;;52.50;22.83;;;4.20;99.90;;;;;;5094009;28;20941;-53
2023/12/15 05:02:16;;;;;;;58.37;22.93;;;4.20;99.90;;;;;;5094209;28;20187;-52
2023/12/15 05:04:42;;;;;;;56.93;23.00;;;4.20;99.90;;;;;;5093345;28;20177;-53
2023/12/15 05:07:07;;;;;;;54.87;24.40;;;4.20;99.90;;;;;;5092941;28;20602;-53
2023/12/15 05:09:33;;;;;;;58.93;24.37;;;4.20;99.90;;;;;;5093715;28;20551;-53
2023/12/15 05:11:58;;;;;;;53.90;23.30;;;4.20;99.90;;;;;;5093350;28;20220;-53
2023/12/15 05:14:24;;;;;;;54.10;23.20;;;4.20;99.90;;;;;;5092825;28;20184;-52
2023/12/15 05:16:49;;;;;;;54.20;22.00;;;4.20;99.90;;;;;;5094109;28;20179;-52
2023/12/15 05:19:15;;;;;;;55.33;22.57;;;4.20;99.90;;;;;;5093376;28;20189;-52
2023/12/15 05:21:41;;;;;;;55.67;22.90;;;4.20;99.90;;;;;;5092977;28;20187;-52
2023/12/15 05:24:06;;;;;;;54.30;23.90;;;4.20;99.90;;;;;;5093072;28;20174;-53
2023/12/15 05:26:32;;;;;;;54.80;22.60;;;4.20;99.90;;;;;;5092896;28;20177;-53
2023/12/15 05:28:57;;;;;;;55.57;24.67;;;4.20;99.90;;;;;;5093136;28;20186;-52
2023/12/15 05:31:23;;;;;;;56.90;24.40;;;4.20;99.90;;;;;;5092735;28;20246;-53
2023/12/15 05:33:48;;;;;;;55.70;24.53;;;4.20;99.90;;;;;;5093805;28;20200;-52
2023/12/15 05:36:20;;;;;;;51.40;23.37;;;4.20;99.90;;;;;;5091447;28;20184;-52
2023/12/15 05:38:50;;;;;;;59.70;24.87;;;4.20;99.90;;;;;;5093769;28;20209;-52
2023/12/15 05:41:15;;;;;;;63.40;23.97;;;4.30;99.90;;;;;;5093874;28;20415;-52
2023/12/15 05:43:41;;;;;;;55.97;23.40;;;4.20;99.90;;;;;;5092661;28;20405;-52
2023/12/15 05:46:07;;;;;;;50.10;23.30;;;4.20;99.90;;;;;;5092144;28;20263;-53
2023/12/15 05:48:33;;;;;;;56.97;26.00;;;4.30;99.90;;;;;;5092890;28;20657;-52
2023/12/15 05:50:58;;;;;;;57.67;23.67;;;4.30;99.90;;;;;;5092649;28;20218;-52
2023/12/15 05:53:24;;;;;;;54.40;25.93;;;4.30;99.90;;;;;;5092158;28;20438;-52
2023/12/15 05:55:52;;;;;;;59.90;26.20;;;4.30;99.90;;;;;;5092912;28;20260;-52
2023/12/15 05:58:17;;;;;;;59.17;24.37;;;4.30;99.90;;;;;;5092972;28;20193;-52
2023/12/15 06:00:43;;;;;;;56.80;26.50;;;4.30;99.90;;;;;;5093371;28;20411;-52
2023/12/15 06:03:08;;;;;;;70.00;26.47;;;4.30;99.90;;;;;;5092411;28;20181;-52
2023/12/15 06:05:34;;;;;;;68.10;25.83;;;4.30;99.90;;;;;;5092461;28;20262;-52
2023/12/15 06:08:01;;;;;;;61.93;25.87;;;4.30;99.90;;;;;;5091412;28;20171;-52
2023/12/15 06:10:27;;;;;;;66.13;26.57;;;4.30;99.90;;;;;;5092143;28;20214;-52
2023/12/15 06:12:53;;;;;;;63.23;24.70;;;4.40;99.90;;;;;;5092058;28;20974;-52
2023/12/15 06:15:18;;;;;;;78.10;27.43;;;4.40;99.90;;;;;;5091969;28;20411;-52
2023/12/15 06:17:44;;;;;;;63.60;23.97;;;4.40;99.90;;;;;;5093078;28;20230;-52
2023/12/15 06:20:13;;;;;;;68.17;26.20;;;4.40;99.90;;;;;;5091920;28;20171;-52
2023/12/15 06:22:38;;;;;;;71.13;25.97;;;4.40;99.90;;;;;;5092596;28;20236;-52
2023/12/15 06:25:04;;;;;;;65.40;26.57;;;4.40;99.90;;;;;;5092104;28;20411;-52
2023/12/15 06:27:33;;;;;;;57.03;24.73;;;4.40;99.90;;;;;;5091445;28;20181;-52
2023/12/15 06:29:59;;;;;;;68.03;25.80;;;4.40;99.90;;;;;;5091672;28;20502;-53
2023/12/15 06:32:25;;;;;;;70.13;25.53;;;4.40;99.90;;;;;;5091540;28;20866;-51
2023/12/15 06:34:50;;;;;;;87.93;26.87;;;4.40;99.90;;;;;;5091705;28;20424;-52
2023/12/15 06:37:16;;;;;;;68.30;26.30;;;4.40;99.90;;;;;;5091484;28;20193;-51
2023/12/15 06:39:43;;;;;;;83.07;26.10;;;4.40;99.90;;;;;;5091633;28;20201;-51
2023/12/15 06:42:09;;;;;;;77.00;28.33;;;4.50;99.90;;;;;;5092051;28;20209;-51
2023/12/15 06:44:34;;;;;;;70.80;26.87;;;4.40;99.90;;;;;;5092371;28;20508;-52
2023/12/15 06:47:00;;;;;;;81.37;27.93;;;4.40;99.90;;;;;;5091525;28;20182;-53
2023/12/15 06:49:30;;;;;;;82.37;28.23;;;4.50;99.90;;;;;;5091764;28;20182;-53
2023/12/15 06:51:57;;;;;;;89.47;27.40;;;4.50;99.90;;;;;;5091618;28;20210;-53
2023/12/15 06:54:23;;;;;;;96.30;30.00;;;4.50;99.90;;;;;;5091255;28;20429;-53
2023/12/15 06:56:48;;;;;;;86.53;26.37;;;4.50;99.90;;;;;;5092259;28;20418;-53
2023/12/15 06:59:14;;;;;;;94.93;28.90;;;4.60;99.90;;;;;;5091374;28;20179;-53
2023/12/15 07:01:40;;;;;;;83.77;28.30;;;4.60;99.90;;;;;;5091786;28;20645;-53
2023/12/15 07:04:06;;;;;;;101.33;30.17;;;4.60;99.90;;;;;;5092101;28;20185;-53
2023/12/15 07:06:31;;;;;;;108.23;30.87;;;4.60;99.90;;;;;;5090784;28;20472;-53
2023/12/15 07:08:58;;;;;;;94.23;28.27;;;4.60;99.90;;;;;;5091088;28;20220;-52
2023/12/15 07:11:24;;;;;;;92.27;29.20;;;4.60;99.90;;;;;;5090949;28;20206;-52
2023/12/15 07:13:49;;;;;;;109.67;31.00;;;4.60;99.90;;;;;;5091446;28;20473;-53
2023/12/15 07:16:15;;;;;;;104.70;31.80;;;4.60;99.90;;;;;;5092179;28;20208;-53
2023/12/15 07:18:41;;;;;;;107.90;32.23;;;4.70;99.90;;;;;;5091000;28;20320;-52
2023/12/15 07:21:07;;;;;;;94.63;30.73;;;4.60;99.90;;;;;;5091674;28;20186;-53
2023/12/15 07:23:34;;;;;;;126.13;33.13;;;4.60;99.90;;;;;;5091854;28;20826;-52
2023/12/15 07:26:00;;;;;;;123.73;33.53;;;4.60;99.90;;;;;;5090972;28;20195;-52
2023/12/15 07:28:26;;;;;;;117.77;33.40;;;4.60;99.90;;;;;;5091073;28;20408;-52
2023/12/15 07:30:51;;;;;;;115.60;32.20;;;4.60;99.90;;;;;;5091670;28;20493;-52
2023/12/15 07:33:17;;;;;;;141.97;33.77;;;4.60;99.90;;;;;;5090690;28;20508;-52
2023/12/15 07:35:42;;;;;;;139.23;34.83;;;4.60;99.90;;;;;;5090065;28;20215;-52
2023/12/15 07:38:09;;;;;;;135.00;34.40;;;4.60;99.90;;;;;;5090524;28;20188;-52
2023/12/15 07:40:35;;;;;;;136.60;36.90;;;4.60;99.90;;;;;;5090639;28;20668;-51
2023/12/15 07:43:01;;;;;;;136.30;35.93;;;4.70;99.90;;;;;;5056443;28;20466;-52
2023/12/15 07:45:27;;;;;;;114.17;33.60;;;4.70;99.90;;;;;;5090930;28;20819;-52
2023/12/15 07:47:53;;;;;;;145.13;35.40;;;4.70;99.90;;;;;;5093177;28;20253;-53
2023/12/15 07:50:22;;;;;;;126.33;36.00;;;4.80;99.90;;;;;;5095713;28;20185;-51
2023/12/15 07:52:47;;;;;;;116.13;37.40;;;4.70;99.90;;;;;;5095049;28;20455;-52
2023/12/15 07:55:13;;;;;;;126.67;35.60;;;4.80;99.90;;;;;;5094478;28;20471;-52
2023/12/15 07:57:39;;;;;;;138.93;37.57;;;4.90;99.90;;;;;;5094924;28;20171;-52
2023/12/15 08:00:09;;;;;;;159.43;37.20;;;4.80;99.90;;;;;;5094530;28;20267;-52
2023/12/15 08:02:35;;;;;;;154.20;38.97;;;4.90;99.90;;;;;;5095245;28;20413;-51
2023/12/15 08:05:00;;;;;;;168.20;40.97;;;5.00;99.90;;;;;;5094691;28;20930;-52
2023/12/15 08:07:26;;;;;;;147.77;39.73;;;5.00;99.90;;;;;;5094391;28;20588;-52
2023/12/15 08:09:51;;;;;;;136.40;36.80;;;5.00;99.90;;;;;;5094410;28;20234;-51
2023/12/15 08:12:17;;;;;;;145.00;36.37;;;5.10;99.90;;;;;;5094863;28;20297;-52
2023/12/15 08:14:42;;;;;;;121.47;35.00;;;5.10;99.90;;;;;;5094465;28;20180;-51
2023/12/15 08:17:08;;;;;;;137.93;36.80;;;5.10;99.90;;;;;;5094139;28;20177;-52
2023/12/15 08:19:34;;;;;;;113.57;34.80;;;5.10;99.90;;;;;;5094691;28;20177;-52
2023/12/15 08:21:59;;;;;;;119.50;33.53;;;5.20;99.90;;;;;;5093183;28;20183;-52
2023/12/15 08:24:26;;;;;;;115.03;32.43;;;5.20;99.90;;;;;;5094324;28;20665;-51
2023/12/15 08:26:53;;;;;;;113.13;31.97;;;5.20;99.90;;;;;;5094389;28;20647;-52
2023/12/15 08:29:20;;;;;;;119.03;34.13;;;5.20;99.90;;;;;;5094742;28;20422;-52
2023/12/15 08:31:46;;;;;;;125.20;34.77;;;5.30;99.90;;;;;;5094610;28;20456;-52
2023/12/15 08:34:12;;;;;;;107.47;33.17;;;5.30;99.90;;;;;;5093632;28;21077;-52
2023/12/15 08:36:38;;;;;;;116.30;32.70;;;5.30;99.90;;;;;;5093959;28;20505;-52
2023/12/15 08:39:04;;;;;;;109.07;32.20;;;5.30;99.90;;;;;;5094195;28;20440;-52
2023/12/15 08:41:30;;;;;;;100.17;30.43;;;5.40;99.90;;;;;;5094031;28;20545;-52
2023/12/15 08:43:55;;;;;;;99.20;30.63;;;5.40;99.90;;;;;;5094287;28;20410;-52
2023/12/15 08:46:22;;;;;;;112.13;32.53;;;5.40;99.90;;;;;;5094071;28;20218;-51
2023/12/15 08:48:49;;;;;;;108.60;31.00;;;5.40;99.90;;;;;;5093703;28;20183;-52
2023/12/15 08:51:15;;;;;;;107.00;31.20;;;5.40;99.90;;;;;;5093981;28;20980;-52
2023/12/15 08:53:40;;;;;;;105.27;30.57;;;5.50;99.90;;;;;;5093869;28;20505;-51
2023/12/15 08:56:06;;;;;;;105.60;31.43;;;5.50;99.90;;;;;;5094245;28;20654;-52
2023/12/15 08:58:31;;;;;;;115.47;31.53;;;5.60;99.90;;;;;;5092718;28;20262;-51
2023/12/15 09:00:57;;;;;;;110.77;31.83;;;5.60;99.90;;;;;;5093961;28;20586;-51
2023/12/15 09:03:22;;;;;;;90.40;26.80;;;5.60;99.90;;;;;;5093506;28;20500;-52
2023/12/15 09:05:48;;;;;;;87.63;27.30;;;5.60;99.90;;;;;;5094070;28;20698;-52
2023/12/15 09:08:14;;;;;;;87.43;27.60;;;5.70;99.90;;;;;;5094314;28;20666;-51
2023/12/15 09:10:43;;;;;;;97.60;27.73;;;5.70;99.90;;;;;;5094137;28;20201;-53
2023/12/15 09:13:10;;;;;;;70.37;25.67;;;5.70;99.90;;;;;;5092447;28;20212;-51
2023/12/15 09:15:35;;;;;;;84.67;25.43;;;5.70;99.90;;;;;;5092733;28;20429;-51
2023/12/15 09:18:01;;;;;;;83.70;25.37;;;5.70;99.90;;;;;;5094107;28;20415;-51
2023/12/15 09:20:27;;;;;;;82.60;26.80;;;5.70;99.90;;;;;;5093633;28;20589;-51
2023/12/15 09:22:54;;;;;;;93.00;26.63;;;5.80;99.90;;;;;;5093720;28;20231;-53
2023/12/15 09:25:20;;;;;;;85.80;27.40;;;5.90;99.90;;;;;;5092704;28;20177;-53
2023/12/15 09:27:45;;;;;;;97.67;29.00;;;6.00;99.90;;;;;;5093100;28;20436;-51
2023/12/15 09:30:11;;;;;;;101.23;28.43;;;6.00;99.90;;;;;;5093472;28;20423;-52
2023/12/15 09:32:37;;;;;;;115.20;32.07;;;6.00;99.90;;;;;;5093298;28;20670;-52
2023/12/15 09:35:02;;;;;;;115.70;33.40;;;6.10;99.90;;;;;;5093500;28;20689;-52
2023/12/15 09:37:28;;;;;;;114.70;35.83;;;6.20;99.90;;;;;;5092141;28;20654;-51
2023/12/15 09:39:53;;;;;;;118.20;33.47;;;6.20;99.90;;;;;;5093234;28;20181;-52
2023/12/15 09:42:19;;;;;;;111.33;32.93;;;6.30;99.90;;;;;;5093638;28;20179;-52
2023/12/15 09:44:45;;;;;;;131.83;33.27;;;6.40;99.90;;;;;;5093125;28;20188;-52
2023/12/15 09:47:12;;;;;;;100.00;31.70;;;6.50;99.90;;;;;;5091866;28;20184;-52
2023/12/15 09:49:40;;;;;;;106.33;30.97;;;6.60;99.90;;;;;;5092548;28;20176;-52
2023/12/15 09:52:07;;;;;;;102.23;30.97;;;6.60;99.90;;;;;;5092977;28;20535;-54
2023/12/15 09:54:34;;;;;;;97.17;30.77;;;6.70;99.90;;;;;;5093134;28;20426;-53
2023/12/15 09:57:00;;;;;;;89.87;30.90;;;6.70;99.90;;;;;;5091956;28;20415;-53
2023/12/15 09:59:26;;;;;;;87.47;27.37;;;6.70;99.90;;;;;;5092714;28;20442;-53
2023/12/15 10:01:52;;;;;;;104.63;30.33;;;6.70;99.90;;;;;;5092157;28;20469;-53
2023/12/15 10:04:17;;;;;;;95.80;30.10;;;6.70;99.90;;;;;;5093012;28;20272;-53
2023/12/15 10:06:43;;;;;;;97.10;30.40;;;6.70;99.90;;;;;;5092160;28;20263;-53
2023/12/15 10:09:16;;;;;;;87.20;28.73;;;6.80;99.90;;;;;;5092176;28;20185;-53
2023/12/15 10:11:44;;;;;;;102.97;29.13;;;6.90;99.90;;;;;;5091647;28;20211;-53
2023/12/15 10:14:11;;;;;;;87.43;27.40;;;6.90;99.90;;;;;;5092393;28;20483;-53
2023/12/15 10:16:37;;;;;;;86.07;28.00;;;7.00;99.90;;;;;;5091581;28;20415;-53
2023/12/15 10:19:08;;;;;;;89.43;28.50;;;7.00;99.90;;;;;;5092101;28;20427;-53
2023/12/15 10:21:34;;;;;;;95.17;27.33;;;6.90;99.90;;;;;;5092680;28;20474;-53
2023/12/15 10:24:20;;;;;;;87.93;27.70;;;7.00;99.90;;;;;;5091699;28;20411;-53
2023/12/15 10:26:47;;;;;;;93.70;29.87;;;7.10;99.90;;;;;;5091890;28;20960;-53
2023/12/15 10:29:13;;;;;;;95.57;26.70;;;7.10;99.90;;;;;;5092515;28;20414;-53
2023/12/15 10:31:38;;;;;;;78.87;27.77;;;7.10;99.90;;;;;;5091719;28;20458;-53
2023/12/15 10:34:05;;;;;;;85.57;26.80;;;7.10;99.90;;;;;;5091707;28;20435;-53
2023/12/15 10:36:33;;;;;;;76.77;26.80;;;7.10;99.90;;;;;;5092211;28;20176;-53
2023/12/15 10:39:02;;;;;;;66.10;24.33;;;7.20;99.90;;;;;;5091840;28;20517;-53
2023/12/15 10:41:31;;;;;;;72.30;25.10;;;7.30;99.90;;;;;;5092173;28;20427;-53
2023/12/15 10:44:03;;;;;;;88.83;26.30;;;7.40;99.90;;;;;;5091559;28;20513;-53
2023/12/15 10:46:29;;;;;;;78.03;25.97;;;7.40;99.90;;;;;;5091650;28;20984;-53
2023/12/15 10:48:55;;;;;;;77.20;26.80;;;7.50;99.90;;;;;;5091751;28;20415;-53
2023/12/15 10:51:24;;;;;;;77.43;25.10;;;7.50;99.90;;;;;;5091832;28;21058;-53
2023/12/15 10:53:53;;;;;;;69.10;24.07;;;7.50;99.90;;;;;;5091537;28;20582;-53
2023/12/15 10:56:18;;;;;;;71.63;23.53;;;7.60;99.90;;;;;;5092124;28;20908;-53
2023/12/15 10:58:44;;;;;;;65.50;23.20;;;7.50;99.90;;;;;;5092325;28;20410;-53
2023/12/15 11:01:12;;;;;;;68.40;23.90;;;7.60;99.90;;;;;;5091219;28;20983;-56
2023/12/15 11:03:38;;;;;;;82.47;24.50;;;7.50;99.90;;;;;;5090544;28;20906;-53
2023/12/15 11:06:05;;;;;;;64.03;21.17;;;7.60;99.90;;;;;;5091470;28;20497;-53
2023/12/15 11:08:31;;;;;;;61.83;22.90;;;7.60;99.90;;;;;;5091561;28;20434;-53
2023/12/15 11:10:57;;;;;;;81.00;24.87;;;7.60;99.90;;;;;;5091552;28;20951;-53
2023/12/15 11:13:58;;;;;;;64.50;23.30;;;7.60;99.90;;;;;;5091446;28;20428;-53
2023/12/15 11:16:24;;;;;;;57.87;22.53;;;7.60;99.90;;;;;;5091677;28;20203;-53
2023/12/15 11:18:51;;;;;;;60.30;22.57;;;7.70;99.90;;;;;;5092400;28;20438;-53
2023/12/15 11:21:19;;;;;;;68.90;22.63;;;7.70;99.90;;;;;;5091608;28;20928;-53
2023/12/15 11:23:59;;;;;;;46.63;21.07;;;7.80;99.90;;;;;;5095372;28;20423;-53
2023/12/15 11:26:29;;;;;;;52.63;20.80;;;7.90;99.90;;;;;;5095482;28;20779;-53
2023/12/15 11:29:15;;;;;;;61.40;21.27;;;7.90;99.90;;;;;;5095729;28;20412;-53
2023/12/15 11:31:41;;;;;;;67.97;21.57;;;7.80;99.90;;;;;;5095255;28;20488;-53
2023/12/15 11:34:08;;;;;;;60.00;22.00;;;7.80;98.80;;;;;;5094843;28;20423;-52
2023/12/15 11:36:47;;;;;;;56.97;22.50;;;7.80;99.90;;;;;;5095356;28;20283;-53
2023/12/15 11:39:15;;;;;;;59.83;21.60;;;7.80;99.90;;;;;;5095796;28;20419;-53
2023/12/15 11:41:42;;;;;;;63.50;22.27;;;7.80;99.90;;;;;;5094665;28;20430;-52
2023/12/15 11:44:08;;;;;;;62.70;20.70;;;7.90;99.90;;;;;;5094980;28;20570;-53
2023/12/15 11:46:33;;;;;;;61.93;21.20;;;7.90;99.60;;;;;;5094528;28;21087;-53
2023/12/15 11:49:00;;;;;;;83.20;22.57;;;7.90;87.90;;;;;;5095224;28;20184;-53
2023/12/15 11:51:28;;;;;;;61.47;20.90;;;7.90;81.60;;;;;;5095489;28;20315;-53
2023/12/15 11:53:55;;;;;;;58.77;22.40;;;8.00;59.60;;;;;;5094796;28;20450;-53
2023/12/15 11:56:20;;;;;;;56.87;20.70;;;7.90;53.10;;;;;;5095395;28;20418;-53
2023/12/15 11:58:46;;;;;;;54.07;19.83;;;8.00;76.20;;;;;;5094536;28;20430;-53
2023/12/15 12:01:14;;;;;;;67.57;21.17;;;8.00;71.60;;;;;;5094772;28;20270;-52
2023/12/15 12:03:40;;;;;;;66.57;23.20;;;8.00;53.00;;;;;;5094429;28;20583;-51
2023/12/15 12:06:08;;;;;;;48.80;21.43;;;8.00;72.60;;;;;;5094038;28;20553;-51
2023/12/15 12:08:34;;;;;;;59.33;20.27;;;8.00;50.40;;;;;;5094742;28;20270;-51
2023/12/15 12:11:00;;;;;;;79.40;20.87;;;8.00;38.40;;;;;;5094953;28;20472;-53
2023/12/15 12:13:33;;;;;;;59.27;21.03;;;8.00;24.30;;;;;;5093808;28;20426;-53
2023/12/15 12:16:00;;;;;;;62.90;20.80;;;8.10;27.20;;;;;;5095241;28;20214;-53
2023/12/15 12:18:26;;;;;;;59.73;21.03;;;8.00;18.30;;;;;;5095065;28;20423;-53
2023/12/15 12:21:02;;;;;;;76.93;22.70;;;8.10;45.70;;;;;;5094101;28;20425;-53
2023/12/15 12:23:28;;;;;;;55.70;20.47;;;8.10;28.20;;;;;;5094053;28;20686;-53
2023/12/15 12:25:58;;;;;;;59.60;21.70;;;8.00;20.50;;;;;;5095023;28;20422;-53
2023/12/15 12:28:39;;;;;;;57.57;20.53;;;8.10;45.30;;;;;;5094766;28;20184;-53
2023/12/15 12:31:05;;;;;;;65.23;19.83;;;8.10;26.50;;;;;;5093938;28;20445;-53
2023/12/15 12:33:31;;;;;;;51.43;20.40;;;8.10;36.90;;;;;;5092968;28;20473;-53